createdAt,value
2019-02-10T00:00:03.261Z,7.45
2019-02-10T00:01:03.246Z,7.33
2019-02-10T00:02:03.231Z,7.23
2019-02-10T00:03:03.221Z,7.21
2019-02-10T00:04:03.206Z,7.32
2019-02-10T00:05:03.201Z,7.21
2019-02-10T00:06:03.183Z,7.36
2019-02-10T00:07:03.168Z,7.24
2019-02-10T00:08:03.155Z,7.29
2019-02-10T00:09:03.139Z,7.23
2019-02-10T00:10:03.126Z,7.29
2019-02-10T00:11:03.114Z,7.24
2019-02-10T00:12:03.100Z,7.23
2019-02-10T00:13:03.084Z,7.24
2019-02-10T00:14:03.077Z,7.37
2019-02-10T00:15:03.060Z,7.41
2019-02-10T00:16:03.054Z,7.45
2019-02-10T00:17:03.034Z,7.37
2019-02-10T00:18:03.019Z,7.37
2019-02-10T00:19:03.009Z,7.42
2019-02-10T00:20:02.995Z,7.47
2019-02-10T00:21:02.993Z,7.52
2019-02-10T00:22:02.968Z,7.51
2019-02-10T00:23:02.953Z,7.48
2019-02-10T00:24:02.941Z,7.52
2019-02-10T00:25:02.926Z,7.44
2019-02-10T00:26:02.916Z,7.44
2019-02-10T00:27:02.902Z,7.52
2019-02-10T00:28:02.889Z,7.47
2019-02-10T00:29:02.875Z,7.44
2019-02-10T00:30:02.860Z,7.55
2019-02-10T00:31:02.849Z,7.60
2019-02-10T00:32:02.836Z,7.50
2019-02-10T00:33:02.823Z,7.54
2019-02-10T00:34:02.811Z,7.55
2019-02-10T00:35:02.794Z,7.52
2019-02-10T00:36:02.786Z,7.50
2019-02-10T00:37:02.773Z,7.42
2019-02-10T00:38:02.758Z,7.55
2019-02-10T00:39:02.746Z,7.54
2019-02-10T00:40:02.734Z,7.57
2019-02-10T00:41:02.716Z,7.54
2019-02-10T00:42:02.705Z,7.57
2019-02-10T00:43:02.693Z,7.52
2019-02-10T00:44:02.677Z,7.52
2019-02-10T00:45:02.667Z,7.52
2019-02-10T00:46:02.653Z,7.51
2019-02-10T00:47:02.639Z,7.52
2019-02-10T00:48:02.626Z,7.57
2019-02-10T00:49:02.610Z,7.50
2019-02-10T00:50:02.600Z,7.51
2019-02-10T00:51:02.588Z,7.63
2019-02-10T00:52:02.576Z,7.69
2019-02-10T00:53:02.560Z,7.79
2019-02-10T00:54:02.546Z,7.77
2019-02-10T00:55:02.535Z,7.81
2019-02-10T00:56:02.522Z,7.79
2019-02-10T00:57:02.508Z,7.82
2019-02-10T00:58:02.494Z,7.81
2019-02-10T00:59:02.483Z,7.81
2019-02-10T01:00:02.470Z,7.79
2019-02-10T01:01:02.457Z,7.79
2019-02-10T01:02:02.444Z,7.74
2019-02-10T01:03:02.430Z,7.79
2019-02-10T01:04:02.417Z,7.77
2019-02-10T01:05:02.404Z,7.67
2019-02-10T01:06:02.391Z,7.69
2019-02-10T01:07:02.378Z,7.67
2019-02-10T01:08:02.365Z,7.67
2019-02-10T01:09:02.350Z,7.63
2019-02-10T01:10:02.336Z,7.69
2019-02-10T01:11:02.324Z,7.55
2019-02-10T01:12:02.314Z,7.63
2019-02-10T01:13:02.296Z,7.58
2019-02-10T01:14:02.286Z,7.63
2019-02-10T01:15:02.274Z,7.63
2019-02-10T01:16:02.260Z,7.70
2019-02-10T01:17:02.246Z,7.69
2019-02-10T01:18:02.233Z,7.70
2019-02-10T01:19:02.221Z,7.67
2019-02-10T01:20:02.207Z,7.63
2019-02-10T01:21:02.193Z,7.70
2019-02-10T01:22:02.179Z,7.66
2019-02-10T01:23:02.169Z,7.60
2019-02-10T01:24:02.155Z,7.60
2019-02-10T01:25:02.144Z,7.55
2019-02-10T01:26:02.128Z,7.58
2019-02-10T01:27:02.115Z,7.63
2019-02-10T01:28:02.101Z,7.66
2019-02-10T01:29:02.091Z,7.58
2019-02-10T01:30:02.076Z,7.58
2019-02-10T01:31:02.064Z,7.62
2019-02-10T01:32:02.050Z,7.67
2019-02-10T01:33:02.036Z,7.71
2019-02-10T01:34:02.024Z,7.74
2019-02-10T01:35:02.015Z,7.74
2019-02-10T01:36:01.998Z,7.77
2019-02-10T01:37:01.984Z,7.70
2019-02-10T01:38:01.972Z,7.70
2019-02-10T01:39:01.960Z,7.73
2019-02-10T01:40:01.949Z,7.74
2019-02-10T01:41:01.934Z,7.71
2019-02-10T01:42:01.921Z,7.69
2019-02-10T01:43:01.906Z,7.69
2019-02-10T01:44:01.891Z,7.66
2019-02-10T01:45:01.881Z,7.74
2019-02-10T01:46:01.868Z,7.79
2019-02-10T01:47:01.855Z,7.84
2019-02-10T01:48:01.841Z,7.81
2019-02-10T01:49:01.828Z,7.77
2019-02-10T01:50:01.814Z,7.77
2019-02-10T01:51:01.802Z,7.70
2019-02-10T01:52:01.789Z,7.63
2019-02-10T01:53:01.775Z,7.63
2019-02-10T01:54:01.763Z,7.67
2019-02-10T01:55:01.750Z,7.60
2019-02-10T01:56:01.738Z,7.55
2019-02-10T01:57:01.724Z,7.52
2019-02-10T01:58:01.709Z,7.50
2019-02-10T01:59:01.698Z,7.44
2019-02-10T02:00:01.684Z,7.45
2019-02-10T02:01:01.670Z,7.41
2019-02-10T02:02:01.657Z,7.45
2019-02-10T02:03:01.647Z,7.42
2019-02-10T02:04:01.633Z,7.51
2019-02-10T02:05:01.619Z,7.54
2019-02-10T02:06:01.605Z,7.52
2019-02-10T02:07:01.594Z,7.54
2019-02-10T02:08:01.580Z,7.44
2019-02-10T02:09:01.566Z,7.45
2019-02-10T02:10:01.559Z,7.51
2019-02-10T02:11:01.540Z,7.41
2019-02-10T02:12:01.527Z,7.48
2019-02-10T02:13:01.514Z,7.36
2019-02-10T02:14:01.503Z,7.47
2019-02-10T02:15:01.490Z,7.51
2019-02-10T02:16:01.477Z,7.42
2019-02-10T02:17:01.463Z,7.50
2019-02-10T02:18:01.450Z,7.42
2019-02-10T02:19:01.436Z,7.41
2019-02-10T02:20:01.427Z,7.36
2019-02-10T02:21:01.409Z,7.33
2019-02-10T02:22:01.399Z,7.41
2019-02-10T02:23:01.384Z,7.36
2019-02-10T02:24:01.370Z,7.29
2019-02-10T02:25:01.357Z,7.27
2019-02-10T02:26:01.345Z,7.23
2019-02-10T02:27:01.332Z,7.18
2019-02-10T02:28:01.319Z,7.19
2019-02-10T02:29:01.304Z,7.19
2019-02-10T02:30:01.300Z,7.19
2019-02-10T02:31:01.278Z,7.21
2019-02-10T02:32:01.264Z,7.26
2019-02-10T02:33:01.254Z,7.26
2019-02-10T02:34:01.239Z,7.21
2019-02-10T02:35:01.226Z,7.16
2019-02-10T02:36:01.215Z,7.11
2019-02-10T02:37:07.713Z,7.26
2019-02-10T02:38:01.187Z,7.21
2019-02-10T02:39:01.176Z,7.37
2019-02-10T02:40:01.161Z,7.32
2019-02-10T02:41:01.146Z,7.27
2019-02-10T02:42:01.135Z,7.23
2019-02-10T02:43:01.120Z,7.23
2019-02-10T02:44:01.108Z,7.19
2019-02-10T02:45:01.093Z,7.11
2019-02-10T02:46:01.078Z,7.04
2019-02-10T02:47:01.067Z,7.04
2019-02-10T02:48:01.054Z,6.94
2019-02-10T02:49:01.040Z,6.89
2019-02-10T02:50:01.027Z,6.91
2019-02-10T02:51:01.177Z,6.87
2019-02-10T02:52:01.000Z,6.97
2019-02-10T02:53:00.987Z,6.94
2019-02-10T02:54:00.972Z,6.89
2019-02-10T02:55:00.960Z,6.93
2019-02-10T02:56:00.948Z,6.83
2019-02-10T02:57:00.936Z,6.90
2019-02-10T02:58:00.919Z,6.90
2019-02-10T02:59:00.907Z,6.87
2019-02-10T03:00:00.895Z,6.97
2019-02-10T03:01:00.882Z,7.00
2019-02-10T03:02:00.870Z,6.90
2019-02-10T03:03:00.854Z,6.90
2019-02-10T03:04:00.842Z,6.90
2019-02-10T03:05:00.829Z,6.99
2019-02-10T03:06:00.814Z,7.01
2019-02-10T03:07:00.807Z,6.93
2019-02-10T03:08:00.821Z,7.00
2019-02-10T03:09:00.774Z,6.87
2019-02-10T03:10:00.759Z,6.82
2019-02-10T03:11:00.748Z,6.87
2019-02-10T03:12:00.733Z,6.83
2019-02-10T03:13:00.720Z,6.89
2019-02-10T03:14:00.705Z,6.79
2019-02-10T03:15:00.694Z,6.78
2019-02-10T03:16:00.679Z,6.73
2019-02-10T03:17:00.665Z,6.72
2019-02-10T03:18:00.653Z,6.73
2019-02-10T03:19:00.639Z,6.69
2019-02-10T03:20:00.628Z,6.76
2019-02-10T03:21:00.612Z,6.71
2019-02-10T03:22:00.604Z,6.76
2019-02-10T03:23:00.588Z,6.73
2019-02-10T03:24:00.572Z,6.86
2019-02-10T03:25:00.597Z,6.78
2019-02-10T03:26:00.542Z,6.68
2019-02-10T03:27:00.535Z,6.91
2019-02-10T03:28:00.518Z,6.78
2019-02-10T03:29:00.504Z,6.79
2019-02-10T03:30:00.491Z,6.83
2019-02-10T03:31:00.480Z,6.72
2019-02-10T03:32:00.465Z,6.73
2019-02-10T03:33:00.453Z,6.69
2019-02-10T03:34:00.437Z,6.72
2019-02-10T03:35:00.424Z,6.76
2019-02-10T03:36:00.409Z,6.71
2019-02-10T03:37:00.402Z,6.81
2019-02-10T03:38:00.387Z,6.75
2019-02-10T03:39:00.370Z,6.78
2019-02-10T03:40:00.375Z,6.86
2019-02-10T03:41:00.348Z,6.89
2019-02-10T03:42:00.327Z,6.79
2019-02-10T03:43:00.315Z,6.79
2019-02-10T03:44:00.302Z,6.72
2019-02-10T03:45:00.314Z,6.72
2019-02-10T03:46:00.274Z,6.61
2019-02-10T03:47:00.261Z,6.69
2019-02-10T03:48:00.247Z,6.64
2019-02-10T03:49:00.233Z,6.75
2019-02-10T03:50:00.690Z,6.68
2019-02-10T03:51:00.208Z,6.60
2019-02-10T03:52:00.191Z,6.68
2019-02-10T03:53:00.181Z,6.65
2019-02-10T03:54:00.168Z,6.68
2019-02-10T03:55:00.379Z,6.50
2019-02-10T03:56:00.138Z,6.50
2019-02-10T03:57:00.124Z,6.40
2019-02-10T03:58:00.111Z,6.48
2019-02-10T03:59:00.098Z,6.50
2019-02-10T04:00:00.147Z,6.48
2019-02-10T04:01:00.074Z,6.46
2019-02-10T04:02:00.056Z,6.45
2019-02-10T04:03:00.046Z,6.46
2019-02-10T04:04:00.031Z,6.43
2019-02-10T04:05:00.017Z,6.39
2019-02-10T04:06:00.004Z,6.40
2019-02-10T04:06:59.987Z,6.28
2019-02-10T04:07:59.975Z,6.35
2019-02-10T04:08:59.959Z,6.28
2019-02-10T04:09:59.947Z,6.36
2019-02-10T04:10:59.934Z,6.28
2019-02-10T04:11:59.923Z,6.32
2019-02-10T04:12:59.909Z,6.39
2019-02-10T04:13:59.895Z,6.39
2019-02-10T04:14:59.879Z,6.38
2019-02-10T04:15:59.866Z,6.35
2019-02-10T04:16:59.852Z,6.33
2019-02-10T04:17:59.838Z,6.39
2019-02-10T04:18:59.823Z,6.45
2019-02-10T04:19:59.812Z,6.43
2019-02-10T04:20:59.799Z,6.48
2019-02-10T04:21:59.783Z,6.51
2019-02-10T04:22:59.770Z,6.54
2019-02-10T04:23:59.762Z,6.54
2019-02-10T04:24:59.741Z,6.61
2019-02-10T04:25:59.728Z,6.58
2019-02-10T04:26:59.716Z,6.64
2019-02-10T04:27:59.700Z,6.60
2019-02-10T04:28:59.687Z,6.60
2019-02-10T04:29:59.673Z,6.54
2019-02-10T04:30:59.658Z,6.61
2019-02-10T04:31:59.643Z,6.40
2019-02-10T04:32:59.630Z,6.58
2019-02-10T04:33:59.622Z,6.55
2019-02-10T04:34:59.603Z,6.54
2019-02-10T04:35:59.588Z,6.42
2019-02-10T04:36:59.577Z,6.35
2019-02-10T04:37:59.561Z,6.35
2019-02-10T04:38:59.545Z,6.48
2019-02-10T04:39:59.533Z,6.48
2019-02-10T04:40:59.517Z,6.71
2019-02-10T04:41:59.505Z,6.71
2019-02-10T04:42:59.493Z,6.79
2019-02-10T04:43:59.477Z,6.83
2019-02-10T04:44:59.463Z,6.71
2019-02-10T04:45:59.447Z,6.73
2019-02-10T04:46:59.434Z,6.72
2019-02-10T04:47:59.419Z,6.76
2019-02-10T04:48:59.406Z,6.69
2019-02-10T04:49:59.389Z,6.60
2019-02-10T04:50:59.382Z,6.63
2019-02-10T04:51:59.364Z,6.68
2019-02-10T04:52:59.348Z,6.68
2019-02-10T04:53:59.337Z,6.69
2019-02-10T04:54:59.320Z,6.73
2019-02-10T04:55:59.306Z,6.82
2019-02-10T04:56:59.292Z,6.72
2019-02-10T04:57:59.277Z,6.72
2019-02-10T04:58:59.264Z,6.69
2019-02-10T04:59:59.250Z,6.68
2019-02-10T05:00:59.234Z,6.60
2019-02-10T05:01:59.223Z,6.45
2019-02-10T05:02:59.207Z,6.57
2019-02-10T05:03:59.192Z,6.46
2019-02-10T05:04:59.178Z,6.42
2019-02-10T05:05:59.163Z,6.28
2019-02-10T05:06:59.150Z,6.27
2019-02-10T05:07:59.138Z,6.35
2019-02-10T05:08:59.123Z,6.33
2019-02-10T05:09:59.108Z,6.32
2019-02-10T05:10:59.099Z,6.35
2019-02-10T05:11:59.083Z,6.35
2019-02-10T05:12:59.066Z,6.32
2019-02-10T05:13:59.050Z,6.30
2019-02-10T05:14:59.042Z,6.30
2019-02-10T05:15:59.035Z,6.33
2019-02-10T05:16:59.013Z,6.27
2019-02-10T05:17:59.000Z,6.32
2019-02-10T05:18:58.988Z,6.24
2019-02-10T05:19:58.969Z,6.24
2019-02-10T05:20:58.954Z,6.27
2019-02-10T05:21:58.940Z,6.24
2019-02-10T05:22:58.928Z,6.24
2019-02-10T05:24:03.485Z,6.25
2019-02-10T05:24:58.899Z,6.27
2019-02-10T05:25:58.890Z,6.28
2019-02-10T05:26:58.884Z,6.25
2019-02-10T05:27:58.858Z,6.43
2019-02-10T05:28:58.854Z,6.46
2019-02-10T05:29:58.835Z,6.45
2019-02-10T05:30:58.816Z,6.43
2019-02-10T05:31:58.800Z,6.53
2019-02-10T05:32:58.791Z,6.51
2019-02-10T05:33:58.779Z,6.55
2019-02-10T05:34:58.759Z,6.54
2019-02-10T05:35:58.747Z,6.61
2019-02-10T05:36:58.731Z,6.60
2019-02-10T05:38:04.207Z,6.65
2019-02-10T05:38:58.704Z,6.64
2019-02-10T05:39:58.691Z,6.71
2019-02-10T05:40:58.675Z,6.65
2019-02-10T05:41:58.666Z,6.64
2019-02-10T05:42:58.657Z,6.72
2019-02-10T05:43:58.638Z,6.69
2019-02-10T05:44:58.621Z,6.65
2019-02-10T05:45:58.611Z,6.79
2019-02-10T05:46:58.593Z,6.71
2019-02-10T05:47:58.584Z,6.76
2019-02-10T05:48:58.565Z,6.73
2019-02-10T05:49:58.554Z,6.75
2019-02-10T05:50:58.540Z,6.65
2019-02-10T05:51:58.607Z,6.73
2019-02-10T05:52:58.513Z,6.82
2019-02-10T05:53:58.507Z,6.81
2019-02-10T05:54:58.483Z,6.68
2019-02-10T05:55:58.471Z,6.69
2019-02-10T05:56:58.458Z,6.69
2019-02-10T05:57:58.444Z,6.87
2019-02-10T05:58:58.460Z,6.93
2019-02-10T05:59:58.417Z,6.94
2019-02-10T06:00:58.402Z,6.86
2019-02-10T06:01:58.386Z,6.97
2019-02-10T06:02:58.373Z,6.91
2019-02-10T06:03:58.359Z,6.87
2019-02-10T06:04:58.348Z,6.93
2019-02-10T06:05:58.332Z,6.99
2019-02-10T06:06:58.323Z,6.82
2019-02-10T06:07:58.308Z,6.86
2019-02-10T06:08:58.299Z,6.82
2019-02-10T06:09:58.283Z,6.79
2019-02-10T06:10:58.268Z,6.73
2019-02-10T06:11:58.252Z,6.72
2019-02-10T06:12:58.248Z,6.89
2019-02-10T06:13:58.222Z,6.82
2019-02-10T06:14:58.213Z,6.89
2019-02-10T06:15:58.199Z,7.00
2019-02-10T06:16:58.183Z,6.94
2019-02-10T06:17:58.170Z,6.91
2019-02-10T06:18:58.156Z,6.96
2019-02-10T06:19:58.146Z,7.04
2019-02-10T06:20:58.130Z,6.96
2019-02-10T06:21:58.117Z,7.01
2019-02-10T06:22:58.102Z,7.05
2019-02-10T06:23:58.090Z,7.07
2019-02-10T06:24:58.074Z,7.07
2019-02-10T06:25:58.063Z,7.04
2019-02-10T06:26:58.058Z,7.01
2019-02-10T06:27:58.039Z,7.01
2019-02-10T06:28:58.022Z,7.07
2019-02-10T06:29:58.009Z,7.04
2019-02-10T06:30:57.994Z,7.01
2019-02-10T06:31:57.980Z,7.12
2019-02-10T06:32:57.968Z,7.11
2019-02-10T06:33:57.955Z,7.11
2019-02-10T06:34:57.944Z,7.16
2019-02-10T06:35:57.929Z,7.16
2019-02-10T06:36:57.921Z,7.15
2019-02-10T06:37:57.903Z,7.18
2019-02-10T06:38:57.892Z,7.18
2019-02-10T06:39:57.874Z,7.19
2019-02-10T06:40:57.859Z,7.27
2019-02-10T06:41:57.847Z,7.30
2019-02-10T06:42:57.832Z,7.30
2019-02-10T06:43:57.821Z,7.32
2019-02-10T06:44:57.805Z,7.24
2019-02-10T06:45:57.794Z,7.30
2019-02-10T06:46:57.779Z,7.32
2019-02-10T06:47:57.921Z,7.27
2019-02-10T06:48:57.752Z,7.27
2019-02-10T06:49:57.738Z,7.29
2019-02-10T06:50:57.729Z,7.24
2019-02-10T06:51:57.712Z,7.34
2019-02-10T06:52:57.700Z,7.45
2019-02-10T06:53:57.685Z,7.37
2019-02-10T06:54:57.673Z,7.34
2019-02-10T06:55:57.661Z,7.44
2019-02-10T06:56:57.651Z,7.34
2019-02-10T06:57:57.632Z,7.41
2019-02-10T06:58:57.619Z,7.41
2019-02-10T06:59:57.609Z,7.48
2019-02-10T07:00:57.593Z,7.67
2019-02-10T07:01:57.581Z,7.69
2019-02-10T07:02:57.571Z,7.70
2019-02-10T07:03:57.555Z,7.74
2019-02-10T07:04:57.540Z,7.79
2019-02-10T07:05:57.526Z,7.89
2019-02-10T07:06:57.515Z,7.91
2019-02-10T07:07:57.500Z,8.00
2019-02-10T07:08:57.490Z,7.89
2019-02-10T07:09:57.473Z,7.91
2019-02-10T07:10:57.460Z,7.86
2019-02-10T07:11:57.450Z,7.95
2019-02-10T07:12:57.432Z,7.82
2019-02-10T07:13:57.419Z,7.77
2019-02-10T07:14:57.408Z,7.76
2019-02-10T07:15:57.396Z,7.76
2019-02-10T07:16:57.380Z,7.67
2019-02-10T07:17:57.369Z,7.58
2019-02-10T07:18:57.354Z,7.57
2019-02-10T07:19:57.351Z,7.60
2019-02-10T07:20:57.328Z,7.67
2019-02-10T07:21:57.314Z,7.57
2019-02-10T07:22:57.303Z,7.58
2019-02-10T07:23:57.288Z,7.52
2019-02-10T07:24:57.277Z,7.42
2019-02-10T07:25:57.262Z,7.47
2019-02-10T07:26:57.249Z,7.55
2019-02-10T07:27:57.235Z,7.52
2019-02-10T07:28:57.222Z,7.52
2019-02-10T07:29:57.208Z,7.52
2019-02-10T07:30:57.196Z,7.62
2019-02-10T07:31:57.184Z,7.54
2019-02-10T07:32:57.171Z,7.48
2019-02-10T07:33:58.515Z,7.52
2019-02-10T07:34:57.147Z,7.50
2019-02-10T07:35:57.132Z,7.54
2019-02-10T07:36:57.117Z,7.55
2019-02-10T07:37:57.105Z,7.47
2019-02-10T07:38:57.091Z,7.50
2019-02-10T07:39:57.079Z,7.45
2019-02-10T07:40:57.065Z,7.47
2019-02-10T07:41:57.055Z,7.50
2019-02-10T07:42:57.041Z,7.55
2019-02-10T07:43:57.029Z,7.70
2019-02-10T07:44:57.012Z,7.77
2019-02-10T07:45:57.002Z,7.81
2019-02-10T07:46:56.989Z,7.76
2019-02-10T07:47:56.975Z,7.99
2019-02-10T07:48:56.962Z,7.91
2019-02-10T07:49:56.950Z,7.99
2019-02-10T07:50:56.937Z,8.00
2019-02-10T07:51:56.923Z,7.96
2019-02-10T07:52:56.910Z,7.96
2019-02-10T07:53:56.896Z,8.04
2019-02-10T07:54:56.882Z,8.13
2019-02-10T07:55:56.870Z,8.17
2019-02-10T07:56:56.856Z,8.12
2019-02-10T07:57:56.845Z,8.28
2019-02-10T07:58:56.832Z,8.36
2019-02-10T07:59:56.819Z,8.27
2019-02-10T08:00:56.806Z,8.28
2019-02-10T08:01:56.793Z,8.20
2019-02-10T08:02:56.779Z,8.28
2019-02-10T08:03:56.766Z,8.40
2019-02-10T08:04:56.753Z,8.40
2019-02-10T08:05:56.740Z,8.39
2019-02-10T08:06:56.728Z,8.46
2019-02-10T08:07:56.714Z,8.36
2019-02-10T08:08:56.705Z,8.47
2019-02-10T08:09:56.689Z,8.49
2019-02-10T08:10:56.680Z,8.45
2019-02-10T08:11:56.665Z,8.52
2019-02-10T08:12:56.650Z,8.49
2019-02-10T08:13:56.636Z,8.49
2019-02-10T08:14:56.625Z,8.42
2019-02-10T08:15:56.613Z,8.47
2019-02-10T08:16:56.602Z,8.43
2019-02-10T08:17:56.586Z,8.37
2019-02-10T08:18:56.574Z,8.36
2019-02-10T08:19:56.561Z,8.39
2019-02-10T08:20:56.548Z,8.39
2019-02-10T08:21:56.537Z,8.55
2019-02-10T08:22:56.524Z,8.49
2019-02-10T08:23:56.513Z,8.68
2019-02-10T08:24:56.498Z,8.71
2019-02-10T08:25:56.485Z,8.80
2019-02-10T08:26:56.473Z,8.79
2019-02-10T08:27:56.482Z,8.79
2019-02-10T08:28:56.447Z,8.80
2019-02-10T08:29:56.434Z,8.89
2019-02-10T08:30:56.422Z,8.98
2019-02-10T08:31:56.408Z,8.98
2019-02-10T08:32:56.398Z,9.23
2019-02-10T08:33:57.264Z,9.22
2019-02-10T08:34:56.371Z,9.15
2019-02-10T08:35:56.359Z,9.27
2019-02-10T08:36:56.346Z,9.22
2019-02-10T08:37:56.335Z,9.22
2019-02-10T08:38:56.322Z,9.27
2019-02-10T08:39:56.310Z,9.17
2019-02-10T08:40:56.294Z,9.31
2019-02-10T08:41:56.284Z,9.26
2019-02-10T08:42:56.271Z,9.27
2019-02-10T08:43:56.259Z,9.34
2019-02-10T08:44:56.247Z,9.27
2019-02-10T08:45:56.238Z,9.26
2019-02-10T08:46:56.221Z,9.32
2019-02-10T08:47:56.211Z,9.26
2019-02-10T08:48:56.196Z,9.30
2019-02-10T08:49:56.188Z,9.40
2019-02-10T08:50:56.174Z,9.34
2019-02-10T08:51:56.162Z,9.34
2019-02-10T08:52:56.154Z,9.35
2019-02-10T08:53:56.137Z,9.27
2019-02-10T08:54:56.127Z,9.35
2019-02-10T08:55:56.114Z,9.34
2019-02-10T08:56:56.102Z,9.32
2019-02-10T08:57:56.088Z,9.38
2019-02-10T08:58:56.079Z,9.32
2019-02-10T08:59:56.065Z,9.40
2019-02-10T09:00:56.054Z,9.40
2019-02-10T09:01:56.041Z,9.42
2019-02-10T09:02:56.030Z,9.40
2019-02-10T09:03:56.018Z,9.38
2019-02-10T09:04:56.014Z,9.38
2019-02-10T09:05:55.996Z,9.31
2019-02-10T09:06:55.986Z,9.35
2019-02-10T09:07:55.971Z,9.26
2019-02-10T09:09:02.455Z,9.30
2019-02-10T09:09:55.947Z,9.30
2019-02-10T09:10:55.934Z,9.27
2019-02-10T09:11:55.927Z,9.31
2019-02-10T09:12:55.910Z,9.32
2019-02-10T09:13:55.898Z,9.26
2019-02-10T09:14:55.887Z,9.32
2019-02-10T09:15:55.924Z,9.40
2019-02-10T09:16:55.863Z,9.48
2019-02-10T09:17:55.854Z,9.58
2019-02-10T09:18:55.843Z,9.65
2019-02-10T09:19:55.829Z,9.68
2019-02-10T09:20:55.815Z,9.70
2019-02-10T09:21:55.804Z,9.71
2019-02-10T09:22:55.793Z,9.77
2019-02-10T09:23:55.784Z,9.78
2019-02-10T09:24:55.769Z,9.86
2019-02-10T09:25:55.764Z,9.91
2019-02-10T09:26:55.746Z,9.89
2019-02-10T09:27:55.735Z,9.91
2019-02-10T09:28:55.722Z,9.92
2019-02-10T09:29:55.712Z,10.01
2019-02-10T09:30:55.698Z,9.98
2019-02-10T09:31:55.688Z,10.02
2019-02-10T09:32:55.687Z,10.14
2019-02-10T09:33:55.664Z,10.10
2019-02-10T09:34:55.652Z,10.02
2019-02-10T09:35:55.643Z,10.04
2019-02-10T09:36:55.629Z,10.07
2019-02-10T09:37:55.618Z,10.01
2019-02-10T09:38:55.606Z,10.07
2019-02-10T09:39:55.595Z,10.09
2019-02-10T09:40:55.585Z,10.18
2019-02-10T09:41:55.574Z,10.20
2019-02-10T09:42:55.561Z,10.18
2019-02-10T09:43:55.551Z,10.31
2019-02-10T09:44:55.537Z,10.18
2019-02-10T09:45:55.527Z,10.35
2019-02-10T09:46:55.516Z,10.35
2019-02-10T09:47:55.517Z,10.39
2019-02-10T09:48:55.493Z,10.43
2019-02-10T09:49:55.483Z,10.54
2019-02-10T09:50:55.471Z,10.51
2019-02-10T09:51:55.461Z,10.52
2019-02-10T09:52:55.454Z,10.55
2019-02-10T09:53:55.439Z,10.66
2019-02-10T09:54:55.436Z,10.66
2019-02-10T09:55:55.418Z,10.52
2019-02-10T09:56:55.406Z,10.62
2019-02-10T09:57:55.397Z,10.65
2019-02-10T09:58:55.381Z,10.66
2019-02-10T09:59:55.375Z,10.63
2019-02-10T10:00:55.361Z,10.63
2019-02-10T10:01:55.353Z,10.68
2019-02-10T10:02:55.339Z,10.70
2019-02-10T10:03:55.327Z,10.72
2019-02-10T10:04:55.315Z,10.69
2019-02-10T10:05:55.307Z,10.72
2019-02-10T10:06:55.293Z,10.65
2019-02-10T10:07:55.283Z,10.80
2019-02-10T10:08:55.272Z,10.65
2019-02-10T10:09:55.263Z,10.72
2019-02-10T10:10:55.250Z,10.66
2019-02-10T10:11:55.239Z,10.63
2019-02-10T10:12:55.227Z,10.58
2019-02-10T10:13:55.217Z,10.63
2019-02-10T10:14:55.207Z,10.63
2019-02-10T10:15:55.194Z,10.66
2019-02-10T10:16:55.185Z,10.65
2019-02-10T10:17:55.173Z,10.63
2019-02-10T10:18:55.162Z,10.51
2019-02-10T10:19:55.152Z,10.65
2019-02-10T10:20:55.141Z,10.47
2019-02-10T10:21:55.130Z,10.52
2019-02-10T10:22:55.118Z,10.49
2019-02-10T10:23:55.110Z,10.49
2019-02-10T10:24:55.097Z,10.57
2019-02-10T10:25:55.087Z,10.51
2019-02-10T10:26:55.075Z,10.62
2019-02-10T10:27:55.065Z,10.62
2019-02-10T10:28:55.053Z,10.68
2019-02-10T10:29:55.042Z,10.66
2019-02-10T10:30:55.032Z,10.57
2019-02-10T10:31:55.021Z,10.58
2019-02-10T10:32:55.008Z,10.62
2019-02-10T10:33:55.002Z,10.60
2019-02-10T10:34:54.989Z,10.72
2019-02-10T10:35:54.981Z,10.65
2019-02-10T10:36:54.967Z,10.66
2019-02-10T10:37:54.956Z,10.72
2019-02-10T10:38:54.944Z,10.76
2019-02-10T10:39:54.933Z,10.72
2019-02-10T10:40:54.922Z,10.73
2019-02-10T10:41:54.911Z,10.76
2019-02-10T10:42:54.904Z,10.68
2019-02-10T10:43:54.891Z,10.73
2019-02-10T10:44:54.881Z,10.76
2019-02-10T10:45:54.876Z,10.83
2019-02-10T10:46:54.859Z,10.86
2019-02-10T10:47:54.848Z,10.76
2019-02-10T10:48:54.836Z,10.76
2019-02-10T10:49:54.826Z,10.84
2019-02-10T10:50:54.815Z,10.83
2019-02-10T10:51:54.806Z,10.86
2019-02-10T10:52:54.806Z,10.87
2019-02-10T10:53:54.783Z,10.88
2019-02-10T10:54:54.773Z,10.93
2019-02-10T10:55:54.761Z,10.90
2019-02-10T10:56:54.748Z,10.86
2019-02-10T10:57:54.741Z,10.81
2019-02-10T10:58:54.727Z,10.93
2019-02-10T10:59:54.719Z,10.94
2019-02-10T11:00:54.709Z,10.94
2019-02-10T11:01:54.696Z,11.01
2019-02-10T11:02:54.685Z,10.98
2019-02-10T11:03:54.677Z,11.06
2019-02-10T11:04:54.670Z,11.01
2019-02-10T11:05:54.655Z,11.16
2019-02-10T11:06:54.643Z,11.09
2019-02-10T11:07:54.633Z,11.02
2019-02-10T11:08:54.623Z,11.12
2019-02-10T11:09:54.610Z,11.02
2019-02-10T11:10:54.602Z,11.05
2019-02-10T11:11:54.592Z,10.99
2019-02-10T11:12:54.584Z,11.01
2019-02-10T11:13:54.592Z,11.02
2019-02-10T11:14:54.556Z,10.94
2019-02-10T11:15:54.545Z,10.94
2019-02-10T11:16:54.534Z,10.83
2019-02-10T11:17:54.526Z,10.91
2019-02-10T11:18:54.513Z,10.84
2019-02-10T11:19:54.503Z,10.87
2019-02-10T11:20:54.495Z,10.87
2019-02-10T11:21:54.483Z,10.86
2019-02-10T11:22:54.471Z,10.87
2019-02-10T11:23:54.460Z,10.86
2019-02-10T11:24:54.450Z,10.88
2019-02-10T11:25:54.437Z,10.88
2019-02-10T11:26:54.434Z,10.80
2019-02-10T11:27:54.416Z,10.84
2019-02-10T11:28:54.404Z,10.90
2019-02-10T11:29:54.393Z,10.88
2019-02-10T11:30:54.390Z,10.87
2019-02-10T11:31:54.374Z,10.78
2019-02-10T11:32:54.364Z,10.87
2019-02-10T11:33:54.355Z,10.86
2019-02-10T11:34:54.343Z,10.83
2019-02-10T11:35:54.333Z,10.81
2019-02-10T11:36:54.320Z,10.81
2019-02-10T11:37:54.311Z,10.86
2019-02-10T11:38:54.301Z,10.88
2019-02-10T11:39:54.290Z,10.87
2019-02-10T11:40:54.277Z,10.95
2019-02-10T11:41:54.268Z,10.87
2019-02-10T11:42:54.258Z,10.83
2019-02-10T11:43:54.247Z,10.90
2019-02-10T11:44:54.237Z,10.91
2019-02-10T11:45:54.225Z,10.98
2019-02-10T11:46:54.215Z,11.02
2019-02-10T11:47:54.204Z,10.99
2019-02-10T11:48:54.192Z,10.95
2019-02-10T11:49:54.183Z,10.98
2019-02-10T11:50:54.171Z,10.95
2019-02-10T11:51:54.159Z,11.01
2019-02-10T11:52:54.150Z,10.98
2019-02-10T11:53:54.140Z,11.02
2019-02-10T11:54:54.127Z,11.01
2019-02-10T11:55:54.117Z,11.01
2019-02-10T11:56:54.107Z,11.02
2019-02-10T11:57:54.094Z,11.02
2019-02-10T11:58:54.085Z,10.98
2019-02-10T11:59:54.073Z,10.98
2019-02-10T12:00:54.062Z,10.98
2019-02-10T12:01:54.051Z,11.01
2019-02-10T12:02:54.043Z,10.99
2019-02-10T12:03:54.032Z,11.05
2019-02-10T12:04:54.022Z,10.99
2019-02-10T12:05:54.011Z,10.98
2019-02-10T12:06:54.000Z,11.01
2019-02-10T12:07:53.990Z,11.02
2019-02-10T12:08:53.982Z,11.08
2019-02-10T12:09:53.968Z,11.02
2019-02-10T12:10:53.956Z,11.01
2019-02-10T12:11:53.947Z,10.98
2019-02-10T12:12:53.936Z,11.06
2019-02-10T12:13:53.925Z,11.09
2019-02-10T12:14:53.916Z,11.02
2019-02-10T12:15:53.904Z,11.01
2019-02-10T12:16:53.892Z,11.09
2019-02-10T12:17:53.883Z,11.08
2019-02-10T12:18:53.873Z,11.06
2019-02-10T12:19:53.863Z,11.08
2019-02-10T12:20:53.850Z,11.12
2019-02-10T12:21:53.842Z,11.12
2019-02-10T12:22:53.831Z,11.02
2019-02-10T12:23:53.823Z,11.08
2019-02-10T12:24:53.809Z,11.09
2019-02-10T12:25:53.799Z,11.09
2019-02-10T12:26:53.787Z,11.03
2019-02-10T12:27:53.781Z,11.01
2019-02-10T12:28:53.772Z,11.12
2019-02-10T12:29:53.756Z,11.09
2019-02-10T12:30:53.747Z,11.16
2019-02-10T12:31:53.736Z,11.06
2019-02-10T12:32:53.724Z,11.08
2019-02-10T12:33:53.716Z,11.13
2019-02-10T12:34:53.703Z,11.05
2019-02-10T12:35:58.254Z,11.06
2019-02-10T12:36:53.681Z,11.06
2019-02-10T12:37:53.672Z,10.99
2019-02-10T12:38:53.662Z,10.93
2019-02-10T12:39:59.601Z,10.94
2019-02-10T12:40:53.642Z,11.08
2019-02-10T12:41:53.633Z,11.13
2019-02-10T12:42:53.620Z,11.08
2019-02-10T12:43:53.610Z,11.12
2019-02-10T12:44:53.603Z,11.13
2019-02-10T12:45:53.590Z,11.17
2019-02-10T12:46:53.577Z,11.19
2019-02-10T12:47:53.566Z,11.11
2019-02-10T12:48:53.557Z,11.21
2019-02-10T12:49:53.545Z,11.26
2019-02-10T12:50:53.536Z,11.28
2019-02-10T12:51:53.523Z,11.26
2019-02-10T12:52:53.513Z,11.36
2019-02-10T12:53:53.513Z,11.48
2019-02-10T12:54:53.492Z,11.46
2019-02-10T12:55:53.482Z,11.63
2019-02-10T12:56:53.468Z,11.64
2019-02-10T12:57:53.459Z,11.74
2019-02-10T12:58:53.448Z,11.81
2019-02-10T12:59:53.437Z,11.78
2019-02-10T13:00:53.425Z,11.93
2019-02-10T13:01:53.415Z,11.84
2019-02-10T13:02:53.411Z,12.00
2019-02-10T13:03:53.393Z,11.97
2019-02-10T13:04:53.381Z,12.00
2019-02-10T13:05:53.372Z,12.12
2019-02-10T13:06:53.365Z,12.03
2019-02-10T13:07:53.350Z,12.00
2019-02-10T13:08:53.339Z,12.11
2019-02-10T13:09:53.330Z,12.07
2019-02-10T13:10:53.320Z,12.05